地図

経路データ

SID SEASON NUMBER BASIN SUBBASIN NAME ISO_TIME NATURE LAT LON WMO_WIND WMO_PRES WMO_AGENCY TRACK_TYPE DIST2LAND LANDFALL IFLAG USA_AGENCY USA_ATCF_ID USA_LAT USA_LON USA_RECORD USA_STATUS USA_WIND USA_PRES USA_SSHS USA_R34_NE USA_R34_SE USA_R34_SW USA_R34_NW USA_R50_NE USA_R50_SE USA_R50_SW USA_R50_NW USA_R64_NE USA_R64_SE USA_R64_SW USA_R64_NW USA_POCI USA_ROCI USA_RMW USA_EYE TOKYO_LAT TOKYO_LON TOKYO_GRADE TOKYO_WIND TOKYO_PRES TOKYO_R50_DIR TOKYO_R50_LONG TOKYO_R50_SHORT TOKYO_R30_DIR TOKYO_R30_LONG TOKYO_R30_SHORT TOKYO_LAND CMA_LAT CMA_LON CMA_CAT CMA_WIND CMA_PRES HKO_LAT HKO_LON HKO_CAT HKO_WIND HKO_PRES NEWDELHI_LAT NEWDELHI_LON NEWDELHI_GRADE NEWDELHI_WIND NEWDELHI_PRES NEWDELHI_CI NEWDELHI_DP NEWDELHI_POCI REUNION_LAT REUNION_LON REUNION_TYPE REUNION_WIND REUNION_PRES REUNION_TNUM REUNION_CI REUNION_RMW REUNION_R34_NE REUNION_R34_SE REUNION_R34_SW REUNION_R34_NW REUNION_R50_NE REUNION_R50_SE REUNION_R50_SW REUNION_R50_NW REUNION_R64_NE REUNION_R64_SE REUNION_R64_SW REUNION_R64_NW BOM_LAT BOM_LON BOM_TYPE BOM_WIND BOM_PRES BOM_TNUM BOM_CI BOM_RMW BOM_R34_NE BOM_R34_SE BOM_R34_SW BOM_R34_NW BOM_R50_NE BOM_R50_SE BOM_R50_SW BOM_R50_NW BOM_R64_NE BOM_R64_SE BOM_R64_SW BOM_R64_NW BOM_ROCI BOM_POCI BOM_EYE BOM_POS_METHOD BOM_PRES_METHOD NADI_LAT NADI_LON NADI_CAT NADI_WIND NADI_PRES WELLINGTON_LAT WELLINGTON_LON WELLINGTON_WIND WELLINGTON_PRES DS824_LAT DS824_LON DS824_STAGE DS824_WIND DS824_PRES TD9636_LAT TD9636_LON TD9636_STAGE TD9636_WIND TD9636_PRES TD9635_LAT TD9635_LON TD9635_WIND TD9635_PRES TD9635_ROCI NEUMANN_LAT NEUMANN_LON NEUMANN_CLASS NEUMANN_WIND NEUMANN_PRES MLC_LAT MLC_LON MLC_CLASS MLC_WIND MLC_PRES USA_GUST BOM_GUST BOM_GUST_PER REUNION_GUST REUNION_GUST_PER USA_SEAHGT USA_SEARAD_NE USA_SEARAD_SE USA_SEARAD_SW USA_SEARAD_NW STORM_SPEED STORM_DIR
1878329N17310 1878 39 NA NA NOT_NAMED 1878-11-25 00:00:00 TS 17.0000 -50.0000 main 1324 1324 _____________O -1 17.0000 -50.0000 TD 30 1 90
1878329N17310 1878 39 NA NA NOT_NAMED 1878-11-25 03:00:00 TS 17.0000 -49.9575 main 1324 1324 _____________P -1 17.0000 -49.9575 TD 32 0 0
1878329N17310 1878 39 NA NA NOT_NAMED 1878-11-25 06:00:00 TS 17.0000 -50.0000 main 1324 1317 _____________O -1 17.0000 -50.0000 TS 35 2 270
1878329N17310 1878 39 NA NA NOT_NAMED 1878-11-25 09:00:00 TS 17.0000 -50.1900 main 1317 1306 _____________P -1 17.0000 -50.1900 TS 37 5 270
1878329N17310 1878 39 NA NA NOT_NAMED 1878-11-25 12:00:00 TS 17.0000 -50.5000 main 1306 1293 _____________O -1 17.0000 -50.5000 TS 40 7 269
1878329N17310 1878 39 NA NA NOT_NAMED 1878-11-25 15:00:00 TS 16.9926 -50.8850 main 1293 1262 _____________P -1 16.9926 -50.8850 TS 40 8 270
1878329N17310 1878 39 NA NA NOT_NAMED 1878-11-25 18:00:00 TS 17.0000 -51.3000 main 1262 1235 _____________O -1 17.0000 -51.3000 TS 40 7 273
1878329N17310 1878 39 NA NA NOT_NAMED 1878-11-25 21:00:00 TS 17.0349 -51.6500 main 1226 1206 _____________P -1 17.0349 -51.6500 TS 42 7 279
1878329N17310 1878 39 NA NA NOT_NAMED 1878-11-26 00:00:00 TS 17.1000 -52.0000 main 1206 1179 _____________O -1 17.1000 -52.0000 TS 45 7 282
1878329N17310 1878 39 NA NA NOT_NAMED 1878-11-26 03:00:00 TS 17.1925 -52.4000 main 1179 1152 _____________P -1 17.1925 -52.4000 TS 50 8 285
1878329N17310 1878 39 NA NA NOT_NAMED 1878-11-26 06:00:00 TS 17.3000 -52.8000 main 1152 1135 _____________O -1 17.3000 -52.8000 TS 55 7 285
1878329N17310 1878 39 NA NA NOT_NAMED 1878-11-26 09:00:00 TS 17.3772 -53.1203 main 1135 1110 _____________P -1 17.3772 -53.1203 TS 55 7 287
1878329N17310 1878 39 NA NA NOT_NAMED 1878-11-26 12:00:00 TS 17.5000 -53.5000 main 1110 1087 _____________O -1 17.5000 -53.5000 TS 55 10 292
1878329N17310 1878 39 NA NA NOT_NAMED 1878-11-26 15:00:00 TS 17.7352 -54.0698 main 1080 1060 _____________P -1 17.7352 -54.0698 TS 55 12 294
1878329N17310 1878 39 NA NA NOT_NAMED 1878-11-26 18:00:00 TS 18.0000 -54.7000 main 1062 1043 _____________O -1 18.0000 -54.7000 TS 55 12 292
1878329N17310 1878 39 NA NA NOT_NAMED 1878-11-26 21:00:00 TS 18.1998 -55.2578 main 1039 1027 _____________P -1 18.1998 -55.2578 TS 55 11 291
1878329N17310 1878 39 NA NA NOT_NAMED 1878-11-27 00:00:00 TS 18.4000 -55.8000 main 1027 980 _____________O -1 18.4000 -55.8000 TS 55 11 293
1878329N17310 1878 39 NA NA NOT_NAMED 1878-11-27 03:00:00 TS 18.6498 -56.3500 main 970 918 _____________P -1 18.6498 -56.3500 TS 55 12 296
1878329N17310 1878 39 NA NA NOT_NAMED 1878-11-27 06:00:00 TS 18.9000 -56.9000 main 918 866 _____________O -1 18.9000 -56.9000 TS 55 11 295
1878329N17310 1878 39 NA NA NOT_NAMED 1878-11-27 09:00:00 TS 19.1298 -57.4500 main 866 806 _____________P -1 19.1298 -57.4500 TS 55 11 291
1878329N17310 1878 39 NA NA NOT_NAMED 1878-11-27 12:00:00 TS 19.3000 -58.0000 main 806 755 _____________O -1 19.3000 -58.0000 TS 55 11 283
1878329N17310 1878 39 NA NA NOT_NAMED 1878-11-27 15:00:00 TS 19.3723 -58.5503 main 744 692 _____________P -1 19.3723 -58.5503 TS 55 10 276
1878329N17310 1878 39 NA NA NOT_NAMED 1878-11-27 18:00:00 TS 19.4000 -59.1000 main 692 642 _____________O -1 19.4000 -59.1000 TS 55 10 275
1878329N17310 1878 39 NA NA NOT_NAMED 1878-11-27 21:00:00 TS 19.4572 -59.6350 main 642 581 _____________P -1 19.4572 -59.6350 TS 55 10 276
1878329N17310 1878 39 NA NA NOT_NAMED 1878-11-28 00:00:00 TS 19.5000 -60.2000 main 581 519 _____________O -1 19.5000 -60.2000 TS 55 11 273
1878329N17310 1878 39 NA NA NOT_NAMED 1878-11-28 03:00:00 TS 19.5149 -60.8350 main 519 448 _____________P -1 19.5149 -60.8350 TS 55 12 270
1878329N17310 1878 39 NA NA NOT_NAMED 1878-11-28 06:00:00 TS 19.5000 -61.5000 main 448 388 _____________O -1 19.5000 -61.5000 TS 55 13 268
1878329N17310 1878 39 NA NA NOT_NAMED 1878-11-28 09:00:00 TS 19.4650 -62.1725 main 378 315 _____________P -1 19.4650 -62.1725 TS 55 12 265
1878329N17310 1878 39 NA NA NOT_NAMED 1878-11-28 12:00:00 TS 19.4000 -62.8000 main 315 262 _____________O -1 19.4000 -62.8000 TS 55 11 262
1878329N17310 1878 39 NA NA NOT_NAMED 1878-11-28 15:00:00 TS 19.3072 -63.3300 main 262 209 _____________P -1 19.3072 -63.3300 TS 55 10 258
1878329N17310 1878 39 NA NA NOT_NAMED 1878-11-28 18:00:00 TS 19.2000 -63.8000 main 209 166 _____________O -1 19.2000 -63.8000 TS 55 9 258
1878329N17310 1878 39 NA NA NOT_NAMED 1878-11-28 21:00:00 TS 19.1149 -64.2648 main 157 116 _____________P -1 19.1149 -64.2648 TS 55 9 257
1878329N17310 1878 39 NA NA NOT_NAMED 1878-11-29 00:00:00 TS 19.0000 -64.7000 main 116 69 _____________O -1 19.0000 -64.7000 TS 55 9 249
1878329N17310 1878 39 NA CS NOT_NAMED 1878-11-29 03:00:00 TS 18.8075 -65.1226 main 69 24 _____________P -1 18.8075 -65.1226 TS 55 9 242
1878329N17310 1878 39 NA CS NOT_NAMED 1878-11-29 06:00:00 TS 18.6000 -65.5000 main 24 11 _____________O -1 18.6000 -65.5000 TS 55 8 241
1878329N17310 1878 39 NA NA NOT_NAMED 1878-11-29 09:00:00 TS 18.4424 -65.8224 main 0 0 _____________P -1 18.4424 -65.8224 TS 55 6 242
1878329N17310 1878 39 NA NA NOT_NAMED 1878-11-29 12:00:00 TS 18.3000 -66.1000 main 0 0 _____________O -1 18.3000 -66.1000 TS 55 6 240
1878329N17310 1878 39 NA NA NOT_NAMED 1878-11-29 15:00:00 TS 18.1425 -66.3650 main 0 0 _____________P -1 18.1425 -66.3650 TS 55 6 238
1878329N17310 1878 39 NA CS NOT_NAMED 1878-11-29 18:00:00 TS 18.0000 -66.6000 main 0 0 _____________O -1 18.0000 -66.6000 TS 55 5 238
1878329N17310 1878 39 NA CS NOT_NAMED 1878-11-29 21:00:00 TS 17.8775 -66.8150 main 10 0 _____________P -1 17.8775 -66.8150 TS 55 4 242
1878329N17310 1878 39 NA CS NOT_NAMED 1878-11-30 00:00:00 TS 17.8000 -67.0000 main 15 15 _____________O -1 17.8000 -67.0000 TS 55 3 253
1878329N17310 1878 39 NA CS NOT_NAMED 1878-11-30 03:00:00 TS 17.7775 -67.1575 main 11 11 _____________P -1 17.7775 -67.1575 TS 55 3 270
1878329N17310 1878 39 NA CS NOT_NAMED 1878-11-30 06:00:00 TS 17.8000 -67.3000 main 15 15 _____________O -1 17.8000 -67.3000 TS 55 3 282
1878329N17310 1878 39 NA CS NOT_NAMED 1878-11-30 09:00:00 TS 17.8350 -67.4500 main 33 31 _____________P -1 17.8350 -67.4500 TS 55 3 289
1878329N17310 1878 39 NA CS NOT_NAMED 1878-11-30 12:00:00 TS 17.9000 -67.6000 main 42 42 _____________O -1 17.9000 -67.6000 TS 55 3 300
1878329N17310 1878 39 NA CS NOT_NAMED 1878-11-30 15:00:00 TS 18.0000 -67.7500 main 52 52 _____________P -1 18.0000 -67.7500 TS 55 3 305
1878329N17310 1878 39 NA CS NOT_NAMED 1878-11-30 18:00:00 TS 18.1000 -67.9000 main 67 57 _____________O -1 18.1000 -67.9000 TS 55 3 298
1878329N17310 1878 39 NA CS NOT_NAMED 1878-11-30 21:00:00 TS 18.1500 -68.0500 main 43 33 _____________P -1 18.1500 -68.0500 TS 55 3 289
1878329N17310 1878 39 NA CS NOT_NAMED 1878-12-01 00:00:00 TS 18.2000 -68.2000 main 33 21 _____________O -1 18.2000 -68.2000 TS 55 3 302
1878329N17310 1878 39 NA CS NOT_NAMED 1878-12-01 03:00:00 TS 18.3225 -68.3424 main 21 0 _____________P -1 18.3225 -68.3424 TS 55 3 305
1878329N17310 1878 39 NA CS NOT_NAMED 1878-12-01 06:00:00 TS 18.4000 -68.5000 main 0 0 _____________O -1 18.4000 -68.5000 TS 55 3 269
1878329N17310 1878 39 NA NA NOT_NAMED 1878-12-01 09:00:00 TS 18.3149 -68.6776 main 0 0 _____________P -1 18.3149 -68.6776 TS 55 4 242
1878329N17310 1878 39 NA CS NOT_NAMED 1878-12-01 12:00:00 TS 18.2000 -68.9000 main 10 10 _____________O -1 18.2000 -68.9000 TS 55 5 253
1878329N17310 1878 39 NA CS NOT_NAMED 1878-12-01 15:00:00 TS 18.1773 -69.1475 main 24 24 _____________P -1 18.1773 -69.1475 TS 55 6 270
1878329N17310 1878 39 NA CS NOT_NAMED 1878-12-01 18:00:00 TS 18.2000 -69.5000 main 24 15 _____________O -1 18.2000 -69.5000 TS 55 8 275
1878329N17310 1878 39 NA CS NOT_NAMED 1878-12-01 21:00:00 TS 18.2499 -69.9899 main 15 0 _____________P -1 18.2499 -69.9899 TS 55 11 275
1878329N17310 1878 39 NA CS NOT_NAMED 1878-12-02 00:00:00 TS 18.3000 -70.6000 main 0 0 _____________O -1 18.3000 -70.6000 TS 55 12 272
1878329N17310 1878 39 NA NA NOT_NAMED 1878-12-02 03:00:00 TS 18.2999 -71.2702 main 0 0 _____________P -1 18.2999 -71.2702 TS 55 13 270
1878329N17310 1878 39 NA NA NOT_NAMED 1878-12-02 06:00:00 TS 18.3000 -72.0000 main 0 0 _____________O -1 18.3000 -72.0000 TS 55 14 272
1878329N17310 1878 39 NA NA NOT_NAMED 1878-12-02 09:00:00 TS 18.3423 -72.7424 main 0 0 _____________P -1 18.3423 -72.7424 TS 55 14 274
1878329N17310 1878 39 NA NA NOT_NAMED 1878-12-02 12:00:00 TS 18.4000 -73.5000 main 0 0 _____________O -1 18.4000 -73.5000 TS 55 14 274
1878329N17310 1878 39 NA NA NOT_NAMED 1878-12-02 15:00:00 TS 18.4530 -74.2524 main 0 0 _____________P -1 18.4530 -74.2524 TS 50 14 274
1878329N17310 1878 39 NA CS NOT_NAMED 1878-12-02 18:00:00 TS 18.5000 -75.0000 main 53 _____________O -1 18.5000 -75.0000 TS 45 14 274

IBTrACS Databaseについて

本データベースは、米国NOAAが公開する1842年以降の世界の熱帯低気圧のベストトラックデータアーカイブInternational Best Track Archive for Climate Stewardship (IBTrACS)を、ウェブで閲覧しやすい形式に変換したものです。

最終更新日:2021-12-08